Time;durP1;ratioP1;P1;durP2;ratioP2;P2;SDS_P1;SDS_P2;PMS_P1;PMS_P2;Temp;Humidity;BMP_temperature;BMP_pressure;BME280_temperature;BME280_humidity;BME280_pressure;Samples;Min_cycle;Max_cycle;Signal;HPM_P1;HPM_P2
2021/01/28 00:02:09;;;;;;;1.20;1.20;;;-1.90;82.90;;;;;;4967671;28;20210;-70
2021/01/28 00:04:34;;;;;;;1.53;1.43;;;-2.00;82.30;;;;;;4967918;28;20182;-69
2021/01/28 00:07:00;;;;;;;2.10;1.97;;;-2.00;82.70;;;;;;4968045;28;20671;-69
2021/01/28 00:09:26;;;;;;;1.10;0.87;;;-2.00;82.90;;;;;;4968104;28;20208;-69
2021/01/28 00:11:51;;;;;;;0.93;0.93;;;-2.00;82.70;;;;;;4967391;28;20224;-69
2021/01/28 00:14:17;;;;;;;1.47;1.10;;;-2.00;82.30;;;;;;4967899;28;21074;-69
2021/01/28 00:16:43;;;;;;;1.90;1.23;;;-2.00;82.90;;;;;;4950366;28;20222;-69
2021/01/28 00:19:09;;;;;;;1.30;1.30;;;-2.00;83.00;;;;;;4969728;28;20224;-69
2021/01/28 00:21:35;;;;;;;1.97;1.07;;;-2.00;82.90;;;;;;4967619;28;20214;-69
2021/01/28 00:24:00;;;;;;;2.90;0.87;;;-2.00;82.80;;;;;;4967692;28;20277;-69
2021/01/28 00:26:26;;;;;;;2.70;1.10;;;-2.00;82.80;;;;;;4966156;28;20194;-69
2021/01/28 00:28:52;;;;;;;0.97;0.83;;;-2.00;82.80;;;;;;4977525;28;20292;-69
2021/01/28 00:31:18;;;;;;;1.10;1.10;;;-2.00;82.90;;;;;;4972196;28;20193;-70
2021/01/28 00:33:43;;;;;;;1.57;1.50;;;-1.90;82.90;;;;;;4968046;28;20198;-69
2021/01/28 00:36:09;;;;;;;1.33;1.07;;;-1.90;82.80;;;;;;4976938;28;20220;-69
2021/01/28 00:38:37;;;;;;;1.53;1.17;;;-2.00;82.80;;;;;;4969046;28;20182;-69
2021/01/28 00:41:07;;;;;;;0.70;0.70;;;-2.00;82.70;;;;;;4984093;28;20185;-70
2021/01/28 00:43:33;;;;;;;1.83;1.67;;;-2.00;83.10;;;;;;4949700;28;21114;-69
2021/01/28 00:45:59;;;;;;;1.87;1.53;;;-2.00;83.00;;;;;;4963736;28;20204;-70
2021/01/28 00:48:28;;;;;;;1.77;1.67;;;-2.10;83.00;;;;;;4971885;28;20626;-70
2021/01/28 00:50:56;;;;;;;3.03;1.93;;;-2.10;83.20;;;;;;4966576;28;20187;-70
2021/01/28 00:53:23;;;;;;;1.53;1.43;;;-2.10;83.30;;;;;;4950196;28;20295;-69
2021/01/28 00:55:49;;;;;;;1.13;1.13;;;-2.10;83.60;;;;;;4949855;28;20273;-70
2021/01/28 00:58:16;;;;;;;1.73;1.63;;;-2.10;83.70;;;;;;4966765;28;20276;-70
2021/01/28 01:00:44;;;;;;;3.90;1.50;;;-2.10;83.70;;;;;;4966918;28;20313;-70
2021/01/28 01:03:12;;;;;;;2.10;1.17;;;-2.20;83.60;;;;;;4966216;28;20264;-69
2021/01/28 01:05:39;;;;;;;2.00;1.30;;;-2.10;84.00;;;;;;4967401;28;20236;-69
2021/01/28 01:08:09;;;;;;;2.83;1.60;;;-2.10;83.70;;;;;;4965873;28;20192;-69
2021/01/28 01:10:39;;;;;;;1.73;1.63;;;-2.10;83.30;;;;;;4966575;28;20189;-69
2021/01/28 01:13:07;;;;;;;2.43;1.80;;;-2.10;83.40;;;;;;4966481;28;20534;-69
2021/01/28 01:15:33;;;;;;;1.73;1.47;;;-2.10;83.40;;;;;;4967086;28;20713;-70
2021/01/28 01:17:59;;;;;;;1.37;1.30;;;-2.00;83.40;;;;;;4966892;28;20198;-69
2021/01/28 01:20:26;;;;;;;1.27;1.17;;;-2.00;83.50;;;;;;4966378;28;20261;-69
2021/01/28 01:22:52;;;;;;;0.80;0.80;;;-2.00;83.50;;;;;;4971248;28;20205;-69
2021/01/28 01:25:19;;;;;;;1.63;1.60;;;-2.00;83.50;;;;;;4957317;28;20596;-69
2021/01/28 01:27:45;;;;;;;2.47;1.83;;;-2.00;83.30;;;;;;4948444;28;20652;-69
2021/01/28 01:30:11;;;;;;;1.67;1.57;;;-2.00;83.40;;;;;;4970917;28;20206;-69
2021/01/28 01:32:37;;;;;;;1.57;1.53;;;-2.10;83.20;;;;;;4967128;28;20201;-69
2021/01/28 01:35:08;;;;;;;1.13;1.03;;;-2.10;83.60;;;;;;4977991;28;20639;-70
2021/01/28 01:37:34;;;;;;;1.60;1.50;;;-2.00;83.60;;;;;;4967174;28;20241;-69
2021/01/28 01:40:00;;;;;;;2.00;1.90;;;-2.10;83.50;;;;;;4959981;28;21038;-69
2021/01/28 01:42:25;;;;;;;1.97;1.77;;;-2.00;84.00;;;;;;4978257;28;20214;-69
2021/01/28 01:44:51;;;;;;;1.30;1.27;;;-2.10;83.80;;;;;;4971400;28;20193;-69
2021/01/28 01:47:17;;;;;;;1.20;1.20;;;-2.00;84.10;;;;;;4982518;28;20245;-69
2021/01/28 01:49:45;;;;;;;1.27;1.10;;;-2.00;84.20;;;;;;4972916;28;20193;-69
2021/01/28 01:52:13;;;;;;;1.90;1.20;;;-2.00;84.30;;;;;;4965859;28;20197;-70
2021/01/28 01:54:41;;;;;;;2.40;1.70;;;-2.00;84.30;;;;;;4978066;28;20285;-69
2021/01/28 01:57:13;;;;;;;1.73;1.63;;;-2.00;84.10;;;;;;4969574;28;20190;-69
2021/01/28 01:59:48;;;;;;;1.97;1.70;;;-2.00;84.20;;;;;;4975202;28;20268;-69
2021/01/28 02:02:18;;;;;;;1.67;1.57;;;-2.00;84.20;;;;;;4957442;28;20216;-69
2021/01/28 02:04:46;;;;;;;2.37;1.93;;;-2.00;84.00;;;;;;4970335;28;20186;-69
2021/01/28 02:07:24;;;;;;;2.90;1.57;;;-2.00;84.10;;;;;;4982651;28;20197;-69
2021/01/28 02:09:51;;;;;;;1.63;1.47;;;-2.00;84.30;;;;;;4974167;28;20181;-69
2021/01/28 02:12:17;;;;;;;1.50;1.40;;;-2.00;84.20;;;;;;4973205;28;20241;-69
2021/01/28 02:14:46;;;;;;;2.73;1.40;;;-2.00;84.50;;;;;;4970275;28;20196;-69
2021/01/28 02:17:15;;;;;;;1.97;1.27;;;-2.00;84.70;;;;;;4980607;28;20946;-69
2021/01/28 02:19:44;;;;;;;2.30;1.47;;;-1.90;84.60;;;;;;4970932;28;20198;-69
2021/01/28 02:22:10;;;;;;;1.60;1.40;;;-1.90;84.60;;;;;;4975119;28;20590;-70
2021/01/28 02:24:35;;;;;;;1.43;1.40;;;-1.90;84.70;;;;;;4977201;28;20178;-69
2021/01/28 02:27:04;;;;;;;2.20;1.90;;;-1.80;84.60;;;;;;4977793;28;20265;-70
2021/01/28 02:29:30;;;;;;;2.87;2.00;;;-1.90;84.60;;;;;;4974085;28;20289;-69
2021/01/28 02:31:57;;;;;;;2.43;1.47;;;-1.90;84.60;;;;;;4972618;28;20279;-69
2021/01/28 02:34:23;;;;;;;1.37;1.20;;;-1.80;84.60;;;;;;4966921;28;20292;-69
2021/01/28 02:36:52;;;;;;;1.70;1.60;;;-1.80;84.60;;;;;;4969712;28;20237;-69
2021/01/28 02:39:24;;;;;;;1.10;1.10;;;-1.80;84.10;;;;;;4970208;28;20205;-69
2021/01/28 02:42:14;;;;;;;2.03;1.40;;;-1.80;84.00;;;;;;4976806;28;20312;-69
2021/01/28 02:44:40;;;;;;;2.67;1.80;;;-1.80;83.80;;;;;;4950924;28;20190;-69
2021/01/28 02:47:07;;;;;;;3.00;1.30;;;-1.90;83.70;;;;;;4969224;28;20194;-69
2021/01/28 02:49:33;;;;;;;1.63;1.50;;;-1.90;83.60;;;;;;4971176;28;20194;-69
2021/01/28 02:51:59;;;;;;;2.20;1.33;;;-1.90;83.60;;;;;;4967416;28;20194;-69
2021/01/28 02:54:25;;;;;;;1.80;1.70;;;-1.90;83.30;;;;;;4967859;28;20193;-70
2021/01/28 02:56:51;;;;;;;1.70;1.60;;;-1.90;83.00;;;;;;4968861;28;21850;-69
2021/01/28 02:59:17;;;;;;;1.77;1.00;;;-1.90;83.30;;;;;;4971064;28;20190;-69
2021/01/28 03:01:43;;;;;;;1.73;1.27;;;-1.90;82.50;;;;;;4951789;28;20229;-69
2021/01/28 03:04:10;;;;;;;2.37;1.50;;;-2.00;82.70;;;;;;4968416;28;20191;-69
2021/01/28 03:06:36;;;;;;;2.37;1.77;;;-2.00;82.70;;;;;;4955991;28;20197;-69
2021/01/28 03:09:05;;;;;;;1.33;1.27;;;-2.10;83.00;;;;;;4968116;28;20194;-69
2021/01/28 03:11:31;;;;;;;1.67;1.50;;;-2.10;83.00;;;;;;4985484;28;20192;-69
2021/01/28 03:13:57;;;;;;;1.10;1.00;;;-2.10;83.20;;;;;;4962842;28;20189;-69
2021/01/28 03:16:23;;;;;;;1.67;1.57;;;-2.10;83.40;;;;;;4980828;28;20255;-69
2021/01/28 03:18:48;;;;;;;1.53;1.43;;;-2.10;83.60;;;;;;4959171;28;20197;-70
2021/01/28 03:21:14;;;;;;;1.43;1.37;;;-2.20;83.80;;;;;;4985044;28;20184;-69
2021/01/28 03:23:40;;;;;;;2.60;1.77;;;-2.20;84.00;;;;;;4972867;28;20631;-69
2021/01/28 03:26:06;;;;;;;2.83;1.50;;;-2.20;84.10;;;;;;4971547;28;20182;-70
2021/01/28 03:28:31;;;;;;;1.80;1.70;;;-2.20;84.70;;;;;;4967172;28;20213;-70
2021/01/28 03:30:57;;;;;;;1.47;1.37;;;-2.20;85.00;;;;;;4951247;28;20333;-70
2021/01/28 03:33:23;;;;;;;1.50;1.40;;;-2.20;84.90;;;;;;4967659;28;20250;-69
2021/01/28 03:35:50;;;;;;;1.20;1.13;;;-2.20;85.10;;;;;;4972936;28;20193;-69
2021/01/28 03:38:17;;;;;;;3.00;1.50;;;-2.20;84.90;;;;;;4975356;28;20267;-69
2021/01/28 03:40:42;;;;;;;1.93;1.80;;;-2.30;84.80;;;;;;4977056;28;20245;-69
2021/01/28 03:43:08;;;;;;;1.63;1.53;;;-2.30;85.10;;;;;;4975729;28;20209;-69
2021/01/28 03:45:34;;;;;;;1.27;1.17;;;-2.30;85.10;;;;;;4973112;28;20269;-69
2021/01/28 03:48:01;;;;;;;1.30;1.23;;;-2.30;85.10;;;;;;4944806;28;20206;-69
2021/01/28 03:50:31;;;;;;;2.27;1.20;;;-2.40;85.50;;;;;;4985006;28;20217;-69
2021/01/28 03:52:59;;;;;;;1.67;1.57;;;-2.40;85.60;;;;;;4967686;28;20557;-69
2021/01/28 03:55:25;;;;;;;1.70;1.70;;;-2.40;85.80;;;;;;4968657;28;20249;-69
2021/01/28 03:57:52;;;;;;;1.53;1.40;;;-2.40;85.80;;;;;;4974896;28;20194;-69
2021/01/28 04:00:30;;;;;;;1.30;1.30;;;-2.50;85.90;;;;;;4969119;28;20563;-69
2021/01/28 04:02:57;;;;;;;1.67;1.57;;;-2.50;85.90;;;;;;4969823;28;20222;-69
2021/01/28 04:05:23;;;;;;;1.27;1.27;;;-2.50;86.20;;;;;;4981354;28;20217;-69
2021/01/28 04:07:49;;;;;;;1.80;1.67;;;-2.50;86.30;;;;;;4975928;28;20370;-69
2021/01/28 04:10:31;;;;;;;1.80;1.70;;;-2.50;86.30;;;;;;4970230;28;20175;-69
2021/01/28 04:12:57;;;;;;;3.23;1.60;;;-2.50;86.60;;;;;;4949350;28;20195;-69
2021/01/28 04:15:23;;;;;;;1.90;1.50;;;-2.50;86.80;;;;;;4970006;28;20262;-69
2021/01/28 04:17:50;;;;;;;1.10;1.10;;;-2.60;86.80;;;;;;4969473;28;20221;-69
2021/01/28 04:20:23;;;;;;;1.60;1.50;;;-2.60;86.80;;;;;;4973679;28;20190;-69
2021/01/28 04:22:48;;;;;;;1.40;1.27;;;-2.60;87.00;;;;;;4952516;28;20268;-69
2021/01/28 04:25:16;;;;;;;1.53;1.43;;;-2.60;87.30;;;;;;4970225;28;20182;-69
2021/01/28 04:27:41;;;;;;;1.37;1.27;;;-2.60;87.20;;;;;;4978173;28;20198;-71
2021/01/28 04:30:10;;;;;;;2.00;1.90;;;-2.60;87.30;;;;;;4965972;28;20923;-70
2021/01/28 04:32:35;;;;;;;2.00;1.70;;;-2.50;87.40;;;;;;4966146;28;20647;-69
2021/01/28 04:35:01;;;;;;;1.53;1.47;;;-2.50;87.20;;;;;;4980591;28;20249;-70
2021/01/28 04:37:27;;;;;;;2.10;1.83;;;-2.50;87.10;;;;;;4976541;28;20551;-70
2021/01/28 04:39:53;;;;;;;2.03;1.90;;;-2.50;87.10;;;;;;4971903;28;21030;-70
2021/01/28 04:42:23;;;;;;;1.90;1.80;;;-2.50;87.20;;;;;;4968737;28;20214;-69
2021/01/28 04:44:50;;;;;;;2.20;1.87;;;-2.50;87.70;;;;;;4969551;28;20174;-70
2021/01/28 04:47:19;;;;;;;1.30;1.20;;;-2.50;87.80;;;;;;4982508;28;20659;-70
2021/01/28 04:49:58;;;;;;;1.47;1.47;;;-2.40;88.10;;;;;;4975403;28;20194;-70
2021/01/28 04:52:26;;;;;;;1.50;1.40;;;-2.40;88.10;;;;;;4966593;28;20181;-69
2021/01/28 04:54:56;;;;;;;2.23;2.10;;;-2.50;88.20;;;;;;4966872;28;20293;-69
2021/01/28 04:57:22;;;;;;;1.93;1.70;;;-2.50;88.40;;;;;;4966448;28;20644;-69
2021/01/28 04:59:54;;;;;;;1.83;1.67;;;-2.40;88.40;;;;;;4949456;28;20265;-69
2021/01/28 05:02:26;;;;;;;3.90;2.33;;;-2.40;88.60;;;;;;4966276;28;20301;-69
2021/01/28 05:04:58;;;;;;;4.23;2.33;;;-2.40;88.80;;;;;;4966932;28;20178;-69
2021/01/28 05:07:29;;;;;;;1.70;1.60;;;-2.40;88.90;;;;;;4966317;28;20224;-69
2021/01/28 05:10:36;;;;;;;2.60;1.67;;;-2.50;89.00;;;;;;4966224;28;20189;-69
2021/01/28 05:13:01;;;;;;;1.80;1.70;;;-2.50;89.00;;;;;;4923999;28;20201;-70
2021/01/28 05:15:34;;;;;;;2.03;1.50;;;-2.50;89.00;;;;;;4931676;29;20190;-70
2021/01/28 05:18:02;;;;;;;2.13;2.00;;;-2.50;89.10;;;;;;4937147;28;20202;-69
2021/01/28 05:20:29;;;;;;;2.03;1.77;;;-2.50;89.10;;;;;;4932372;28;20195;-69
2021/01/28 05:23:29;;;;;;;3.40;2.53;;;-2.60;89.00;;;;;;4937521;29;20270;-69
2021/01/28 05:25:55;;;;;;;0.77;0.77;;;-2.60;89.10;;;;;;4947986;28;20228;-69
2021/01/28 05:28:41;;;;;;;1.40;1.40;;;-2.60;89.20;;;;;;4945280;28;20190;-69
2021/01/28 05:31:26;;;;;;;1.37;1.30;;;-2.60;89.10;;;;;;4953670;28;20253;-69
2021/01/28 05:33:51;;;;;;;1.93;1.40;;;-2.60;89.00;;;;;;4951782;28;20213;-69
2021/01/28 05:36:21;;;;;;;5.83;1.83;;;-2.60;88.90;;;;;;4959607;28;20663;-69
2021/01/28 05:41:44;;;;;;;2.87;2.23;;;-2.60;88.70;;;;;;4953389;28;20184;-70
2021/01/28 05:44:29;;;;;;;2.37;2.27;;;-2.60;88.50;;;;;;4937790;28;20205;-69
2021/01/28 05:47:05;;;;;;;1.90;1.43;;;-2.60;88.70;;;;;;4944616;29;20190;-69
2021/01/28 05:49:34;;;;;;;1.70;1.50;;;-2.60;88.50;;;;;;4955488;28;20201;-69
2021/01/28 05:52:28;;;;;;;3.63;2.20;;;-2.60;88.40;;;;;;4963017;28;20181;-70
2021/01/28 05:55:13;;;;;;;1.30;1.23;;;-2.50;88.30;;;;;;4969585;28;21098;-70
2021/01/28 05:58:11;;;;;;;2.77;2.23;;;-2.50;88.10;;;;;;4963462;28;20218;-71
2021/01/28 06:00:55;;;;;;;1.77;1.67;;;-2.50;87.90;;;;;;4964225;28;21126;-70
2021/01/28 06:03:39;;;;;;;1.50;1.50;;;-2.40;88.00;;;;;;4972507;28;20287;-71
2021/01/28 06:06:20;;;;;;;1.47;1.40;;;-2.40;87.50;;;;;;4966194;28;20179;-69
2021/01/28 06:09:13;;;;;;;1.93;1.07;;;-2.30;87.10;;;;;;4962176;28;20175;-69
2021/01/28 06:12:02;;;;;;;1.67;1.30;;;-2.30;86.90;;;;;;4970949;28;20213;-71
2021/01/28 06:14:36;;;;;;;1.50;1.40;;;-2.30;86.90;;;;;;4922394;29;20214;-70
2021/01/28 06:17:35;;;;;;;1.90;1.80;;;-2.40;86.90;;;;;;4921449;29;20195;-70
2021/01/28 06:20:27;;;;;;;2.97;1.30;;;-2.40;86.70;;;;;;4829154;29;20279;-70
2021/01/28 06:23:14;;;;;;;1.67;1.57;;;-2.50;86.90;;;;;;4828295;29;20237;-72
2021/01/28 06:25:58;;;;;;;1.53;1.43;;;-2.50;86.80;;;;;;4828060;29;20200;-70
2021/01/28 06:28:53;;;;;;;1.00;1.00;;;-2.50;86.60;;;;;;4827755;29;20302;-71
2021/01/28 06:31:36;;;;;;;5.33;1.70;;;-2.50;86.60;;;;;;4829411;29;20262;-70
2021/01/28 06:34:21;;;;;;;2.67;1.20;;;-2.50;86.20;;;;;;4829873;29;20186;-75
2021/01/28 06:37:04;;;;;;;1.10;1.10;;;-2.50;86.20;;;;;;4830254;29;20791;-75
2021/01/28 06:39:41;;;;;;;1.60;1.50;;;-2.50;86.10;;;;;;4816839;29;20195;-70
2021/01/28 06:42:32;;;;;;;3.10;1.40;;;-2.40;86.00;;;;;;4833870;29;20226;-70
2021/01/28 06:45:10;;;;;;;2.20;1.30;;;-2.40;86.00;;;;;;4835068;29;20640;-70
2021/01/28 06:47:58;;;;;;;0.63;0.63;;;-2.30;85.80;;;;;;4833936;29;20226;-70
2021/01/28 06:50:30;;;;;;;1.03;1.03;;;-2.20;85.40;;;;;;4834864;29;20715;-69
2021/01/28 06:53:11;;;;;;;1.57;1.47;;;-2.00;85.30;;;;;;4852742;29;20197;-68
2021/01/28 06:55:52;;;;;;;1.23;1.13;;;-1.90;85.80;;;;;;4907943;28;20225;-69
2021/01/28 06:58:48;;;;;;;0.70;0.70;;;-1.70;84.60;;;;;;4965016;28;20629;-69
2021/01/28 07:01:38;;;;;;;1.30;1.10;;;-1.40;84.30;;;;;;4966951;28;20282;-70
2021/01/28 07:04:28;;;;;;;0.70;0.70;;;-1.10;82.70;;;;;;4969132;28;20253;-70
2021/01/28 07:07:24;;;;;;;2.00;1.10;;;-0.80;82.10;;;;;;4967916;28;20189;-70
2021/01/28 07:09:57;;;;;;;0.67;0.67;;;-0.60;80.50;;;;;;4967300;28;20183;-70
2021/01/28 07:12:30;;;;;;;0.50;0.50;;;-0.40;80.50;;;;;;4967860;28;20170;-69
2021/01/28 07:14:55;;;;;;;2.03;1.40;;;-0.20;79.80;;;;;;4950747;28;20287;-69
2021/01/28 07:17:29;;;;;;;2.00;1.63;;;0.00;79.30;;;;;;4967725;28;20686;-69
2021/01/28 07:20:01;;;;;;;2.27;2.03;;;0.10;79.10;;;;;;4967975;28;20175;-69
2021/01/28 07:22:34;;;;;;;1.80;1.27;;;0.30;78.80;;;;;;4967557;28;20365;-69
2021/01/28 07:25:53;;;;;;;1.70;1.60;;;0.50;77.80;;;;;;4968530;28;20185;-70
2021/01/28 07:28:19;;;;;;;1.80;1.80;;;0.70;77.90;;;;;;4913734;29;20224;-70
2021/01/28 07:30:49;;;;;;;1.27;1.13;;;0.80;77.40;;;;;;4909495;29;20216;-74
2021/01/28 07:33:24;;;;;;;1.80;1.73;;;1.00;76.60;;;;;;4908915;29;20615;-75
2021/01/28 07:36:00;;;;;;;1.73;1.37;;;1.30;77.20;;;;;;4885988;29;20197;-68
2021/01/28 07:38:29;;;;;;;1.13;0.87;;;1.40;75.30;;;;;;4902545;29;20180;-69
2021/01/28 07:41:24;;;;;;;2.03;1.93;;;1.40;74.90;;;;;;4908934;29;20180;-69
2021/01/28 07:43:52;;;;;;;1.43;1.40;;;1.50;75.00;;;;;;4852817;29;20221;-71
2021/01/28 07:46:27;;;;;;;1.90;1.80;;;1.70;75.10;;;;;;4862924;29;20190;-70
2021/01/28 07:49:18;;;;;;;1.90;1.80;;;1.80;74.00;;;;;;4853407;29;20205;-71
2021/01/28 07:51:51;;;;;;;1.60;1.50;;;1.70;73.30;;;;;;4859790;29;20261;-70
2021/01/28 07:54:26;;;;;;;2.23;2.03;;;1.80;74.40;;;;;;4859288;29;20208;-70
2021/01/28 07:57:10;;;;;;;1.50;1.40;;;1.90;73.70;;;;;;4853978;29;20249;-70
2021/01/28 07:59:54;;;;;;;7.67;1.67;;;2.00;73.60;;;;;;4858870;29;20195;-71
2021/01/28 08:02:30;;;;;;;1.30;1.30;;;2.10;73.30;;;;;;4871791;29;20321;-71
2021/01/28 08:05:01;;;;;;;1.67;1.57;;;2.10;73.10;;;;;;4842908;29;20716;-70
2021/01/28 08:07:31;;;;;;;1.73;1.63;;;2.20;73.50;;;;;;4859889;29;20253;-71
2021/01/28 08:10:00;;;;;;;1.53;1.50;;;2.10;73.10;;;;;;4874910;29;20185;-71
2021/01/28 08:12:36;;;;;;;1.30;1.30;;;1.70;72.40;;;;;;4869641;29;20193;-70
2021/01/28 08:15:14;;;;;;;1.70;1.60;;;1.80;74.50;;;;;;4868923;29;20193;-72
2021/01/28 08:17:40;;;;;;;2.83;2.00;;;2.20;74.70;;;;;;4877763;29;20182;-71
2021/01/28 08:20:24;;;;;;;1.90;1.80;;;2.50;72.80;;;;;;4878787;28;20220;-71
2021/01/28 08:23:05;;;;;;;1.80;1.70;;;2.60;72.20;;;;;;4947655;29;20226;-71
2021/01/28 08:25:34;;;;;;;5.03;1.97;;;2.70;72.60;;;;;;4942694;28;20178;-71
2021/01/28 08:28:28;;;;;;;2.60;1.67;;;3.00;71.60;;;;;;4976573;28;20194;-72
2021/01/28 08:31:23;;;;;;;2.00;1.80;;;3.00;70.60;;;;;;4940727;28;20221;-72
2021/01/28 08:33:57;;;;;;;2.50;2.30;;;2.90;70.60;;;;;;4957605;28;20289;-72
2021/01/28 08:36:24;;;;;;;1.60;1.50;;;3.00;70.40;;;;;;4971000;28;20539;-70
2021/01/28 08:39:08;;;;;;;1.17;1.17;;;3.00;70.20;;;;;;4942793;28;20209;-71
2021/01/28 08:41:34;;;;;;;2.20;2.10;;;2.90;70.30;;;;;;4960888;28;20185;-71
2021/01/28 08:44:10;;;;;;;1.87;1.73;;;2.80;70.30;;;;;;4971266;28;20193;-71
2021/01/28 08:46:38;;;;;;;1.67;1.57;;;2.90;70.30;;;;;;4964568;28;20177;-71
2021/01/28 08:49:14;;;;;;;2.60;1.53;;;3.00;70.10;;;;;;4963309;28;20254;-71
2021/01/28 08:51:44;;;;;;;2.00;1.90;;;3.20;70.00;;;;;;4958189;28;20190;-73
2021/01/28 08:54:20;;;;;;;1.13;1.13;;;3.50;69.70;;;;;;4972882;28;20634;-73
2021/01/28 08:56:49;;;;;;;1.60;1.60;;;3.80;69.60;;;;;;4969708;28;20453;-72
2021/01/28 08:59:18;;;;;;;1.57;1.50;;;3.90;68.20;;;;;;4969717;28;20193;-72
2021/01/28 09:01:49;;;;;;;1.53;1.43;;;4.10;67.30;;;;;;4967263;28;20190;-72
2021/01/28 09:04:24;;;;;;;1.27;1.20;;;3.70;67.90;;;;;;4952251;28;20960;-72
2021/01/28 09:06:50;;;;;;;1.67;1.53;;;3.30;68.40;;;;;;4958003;28;20212;-72
2021/01/28 09:09:36;;;;;;;1.50;1.40;;;3.40;68.80;;;;;;4951318;28;20671;-72
2021/01/28 09:12:31;;;;;;;2.27;1.27;;;3.90;69.80;;;;;;4949797;28;20194;-71
2021/01/28 09:15:24;;;;;;;1.23;1.13;;;4.30;67.90;;;;;;4958490;28;20766;-72
2021/01/28 09:17:53;;;;;;;1.10;1.10;;;4.20;67.10;;;;;;4960714;28;20193;-71
2021/01/28 09:20:30;;;;;;;1.43;1.20;;;3.50;67.60;;;;;;4965643;28;20473;-72
2021/01/28 09:23:18;;;;;;;1.50;1.40;;;2.90;69.00;;;;;;4971951;28;20212;-71
2021/01/28 09:25:45;;;;;;;1.60;1.50;;;2.40;70.00;;;;;;4961717;28;20294;-71
2021/01/28 09:28:20;;;;;;;1.83;1.70;;;2.20;70.60;;;;;;4963950;28;20209;-72
2021/01/28 09:30:49;;;;;;;2.37;1.97;;;2.10;72.00;;;;;;4958527;28;20292;-71
2021/01/28 09:33:36;;;;;;;6.97;2.00;;;2.20;71.20;;;;;;4971570;28;20202;-71
2021/01/28 09:36:05;;;;;;;2.67;2.03;;;2.30;71.50;;;;;;4964377;28;20285;-71
2021/01/28 09:38:31;;;;;;;1.97;1.77;;;2.40;71.60;;;;;;4955103;28;20565;-71
2021/01/28 09:41:12;;;;;;;2.07;1.93;;;2.30;71.70;;;;;;4965915;28;20241;-71
2021/01/28 09:43:38;;;;;;;1.77;1.60;;;1.90;71.80;;;;;;4955799;28;20694;-71
2021/01/28 09:46:10;;;;;;;2.33;1.90;;;1.80;72.80;;;;;;4950761;28;20182;-71
2021/01/28 09:48:36;;;;;;;1.17;1.17;;;1.60;73.00;;;;;;4961685;28;20187;-71
2021/01/28 09:51:04;;;;;;;1.70;1.60;;;1.40;73.40;;;;;;4955975;28;20190;-71
2021/01/28 09:53:30;;;;;;;1.33;1.27;;;1.50;74.40;;;;;;4951054;28;20204;-71
2021/01/28 09:55:56;;;;;;;2.27;2.07;;;1.70;74.00;;;;;;4951859;28;20216;-71
2021/01/28 09:58:22;;;;;;;1.93;1.83;;;1.70;72.70;;;;;;4944608;28;20187;-72
2021/01/28 10:00:48;;;;;;;1.50;1.40;;;1.70;72.50;;;;;;4948764;28;20190;-71
2021/01/28 10:03:14;;;;;;;1.63;1.63;;;1.90;73.20;;;;;;4958564;28;20205;-71
2021/01/28 10:05:40;;;;;;;2.90;1.80;;;2.30;72.20;;;;;;4963171;28;20191;-72
2021/01/28 10:08:06;;;;;;;2.37;1.40;;;2.50;72.00;;;;;;4961556;28;20248;-73
2021/01/28 10:10:34;;;;;;;1.57;1.57;;;2.90;71.00;;;;;;4964628;28;20210;-73
2021/01/28 10:13:03;;;;;;;1.93;1.60;;;3.00;69.70;;;;;;4962287;28;20648;-72
2021/01/28 10:15:29;;;;;;;1.80;1.53;;;3.00;69.70;;;;;;4951243;28;20218;-73
2021/01/28 10:17:55;;;;;;;1.27;1.27;;;3.10;69.80;;;;;;4973908;28;20237;-73
2021/01/28 10:20:22;;;;;;;1.70;1.70;;;3.40;70.10;;;;;;4972018;28;20641;-73
2021/01/28 10:22:48;;;;;;;2.37;1.63;;;3.70;69.10;;;;;;4971521;28;20210;-71
2021/01/28 10:25:16;;;;;;;2.17;1.97;;;3.90;68.30;;;;;;4970545;28;20694;-70
2021/01/28 10:27:42;;;;;;;3.27;2.60;;;3.90;68.20;;;;;;4977649;28;20204;-70
2021/01/28 10:30:11;;;;;;;2.87;2.33;;;3.70;68.80;;;;;;4950370;28;20293;-71
2021/01/28 10:32:37;;;;;;;3.47;2.40;;;3.30;69.10;;;;;;4966883;28;20179;-70
2021/01/28 10:35:05;;;;;;;2.77;2.37;;;3.00;69.50;;;;;;4951322;28;20201;-71
2021/01/28 10:37:30;;;;;;;2.17;2.07;;;3.00;70.40;;;;;;4968957;28;20580;-71
2021/01/28 10:39:56;;;;;;;3.90;2.60;;;3.10;70.80;;;;;;4968069;28;20198;-71
2021/01/28 10:42:31;;;;;;;4.17;2.97;;;3.20;70.80;;;;;;4968028;28;20634;-71
2021/01/28 10:44:57;;;;;;;2.30;2.13;;;3.40;70.30;;;;;;4968710;28;20217;-71
2021/01/28 10:47:23;;;;;;;4.27;3.13;;;3.50;70.10;;;;;;4968841;28;20198;-71
2021/01/28 10:49:48;;;;;;;3.13;2.57;;;3.40;70.10;;;;;;4950166;28;20190;-71
2021/01/28 10:52:14;;;;;;;3.70;3.23;;;3.20;70.20;;;;;;4966628;28;20190;-72
2021/01/28 10:54:40;;;;;;;3.17;2.97;;;3.10;70.40;;;;;;4968043;28;20183;-71
2021/01/28 10:57:05;;;;;;;3.27;2.97;;;2.70;70.70;;;;;;4968026;28;20186;-71
2021/01/28 10:59:31;;;;;;;2.60;2.40;;;2.60;71.70;;;;;;4953892;28;20187;-70
2021/01/28 11:02:02;;;;;;;2.77;2.40;;;2.20;72.00;;;;;;4949713;29;20234;-70
2021/01/28 11:04:29;;;;;;;2.67;1.70;;;2.00;72.60;;;;;;4950301;29;20238;-71
2021/01/28 11:07:04;;;;;;;2.23;2.03;;;2.00;73.20;;;;;;4949697;28;20179;-70
2021/01/28 11:09:35;;;;;;;7.83;2.23;;;1.70;73.50;;;;;;4958845;28;20573;-71
2021/01/28 11:12:00;;;;;;;3.57;2.10;;;1.50;73.90;;;;;;4939399;28;20278;-70
2021/01/28 11:14:26;;;;;;;3.67;1.90;;;1.40;74.80;;;;;;4956412;28;20278;-70
2021/01/28 11:16:52;;;;;;;2.20;2.00;;;1.20;75.00;;;;;;4932354;29;20630;-71
2021/01/28 11:19:18;;;;;;;3.33;2.13;;;0.90;76.00;;;;;;4950224;28;20195;-71
2021/01/28 11:21:44;;;;;;;1.90;1.73;;;0.80;76.90;;;;;;4966295;28;20584;-72
2021/01/28 11:24:09;;;;;;;1.90;1.63;;;0.70;77.00;;;;;;4967590;28;21065;-71
2021/01/28 11:26:35;;;;;;;1.97;1.83;;;0.70;77.40;;;;;;4968657;28;20658;-70
2021/01/28 11:29:04;;;;;;;2.63;1.70;;;0.80;77.40;;;;;;4968632;28;20205;-70
2021/01/28 11:31:30;;;;;;;2.90;1.73;;;0.80;77.80;;;;;;4966322;28;20260;-72
2021/01/28 11:33:56;;;;;;;2.23;2.00;;;0.70;77.50;;;;;;4968149;28;20202;-72
2021/01/28 11:36:22;;;;;;;2.33;2.13;;;0.70;77.80;;;;;;4958160;28;20201;-71
2021/01/28 11:38:48;;;;;;;3.30;2.13;;;0.70;78.00;;;;;;4968732;28;20187;-70
2021/01/28 11:41:13;;;;;;;6.27;3.40;;;0.70;78.40;;;;;;4967433;28;20186;-71
2021/01/28 11:43:39;;;;;;;4.40;2.90;;;0.70;78.60;;;;;;4950704;28;20218;-71
2021/01/28 11:46:05;;;;;;;4.60;2.77;;;0.70;79.30;;;;;;4960858;28;20633;-71
2021/01/28 11:48:31;;;;;;;1.83;1.73;;;0.80;79.80;;;;;;4951290;28;20559;-71
2021/01/28 11:50:56;;;;;;;1.87;1.27;;;0.80;80.10;;;;;;4944483;28;20178;-72
2021/01/28 11:53:22;;;;;;;2.23;1.47;;;1.10;79.90;;;;;;4961710;28;20187;-71
2021/01/28 11:55:48;;;;;;;6.83;2.07;;;1.20;79.40;;;;;;4968138;28;20663;-71
2021/01/28 11:58:14;;;;;;;2.03;1.83;;;1.40;79.70;;;;;;4965188;28;20732;-71
2021/01/28 12:00:40;;;;;;;2.83;2.40;;;1.70;78.60;;;;;;4934412;28;20194;-73
2021/01/28 12:03:06;;;;;;;2.03;1.47;;;1.90;78.10;;;;;;4957814;28;20218;-73
2021/01/28 12:05:31;;;;;;;1.83;1.73;;;1.90;77.50;;;;;;4947660;29;20190;-72
2021/01/28 12:07:58;;;;;;;2.23;2.07;;;1.90;77.50;;;;;;4949181;29;20189;-72
2021/01/28 12:10:26;;;;;;;2.57;2.20;;;1.80;77.50;;;;;;4966666;28;20186;-73
2021/01/28 12:12:52;;;;;;;2.07;1.97;;;1.90;77.80;;;;;;4950566;28;20209;-71
2021/01/28 12:15:19;;;;;;;2.30;1.80;;;2.00;77.30;;;;;;4946490;28;20663;-73
2021/01/28 12:17:46;;;;;;;1.73;1.70;;;1.90;77.20;;;;;;4963450;28;20565;-72
2021/01/28 12:20:13;;;;;;;4.03;1.87;;;1.90;78.10;;;;;;4962712;28;20186;-72
2021/01/28 12:22:39;;;;;;;1.70;1.60;;;1.90;78.40;;;;;;4965938;28;20836;-74
2021/01/28 12:25:05;;;;;;;2.17;2.07;;;1.80;78.00;;;;;;4957180;28;20191;-71
2021/01/28 12:27:31;;;;;;;2.03;1.83;;;1.60;78.30;;;;;;4948212;29;20258;-72
2021/01/28 12:29:58;;;;;;;1.53;1.40;;;1.60;78.60;;;;;;4948458;29;20667;-71
2021/01/28 12:32:24;;;;;;;1.60;1.50;;;1.70;78.90;;;;;;4931095;29;20588;-71
2021/01/28 12:34:50;;;;;;;1.70;1.60;;;1.60;79.20;;;;;;4948764;29;20187;-71
2021/01/28 12:37:15;;;;;;;4.23;2.37;;;1.60;79.60;;;;;;4947402;28;20175;-72
2021/01/28 12:39:41;;;;;;;3.07;1.97;;;1.40;79.70;;;;;;4948349;29;20183;-72
2021/01/28 12:42:07;;;;;;;2.40;2.30;;;1.40;79.90;;;;;;4947945;29;20277;-72
2021/01/28 12:44:34;;;;;;;2.27;2.17;;;1.40;80.30;;;;;;4931023;29;20949;-72
2021/01/28 12:46:59;;;;;;;2.50;2.30;;;1.40;80.00;;;;;;4947909;29;20198;-71
2021/01/28 12:49:26;;;;;;;2.77;2.57;;;1.40;79.50;;;;;;4963809;28;20651;-71
2021/01/28 12:51:53;;;;;;;2.60;2.33;;;1.40;79.60;;;;;;4947398;28;20190;-71
2021/01/28 12:54:19;;;;;;;2.70;2.50;;;1.50;79.60;;;;;;4966927;28;20201;-72
2021/01/28 12:56:45;;;;;;;3.80;2.80;;;1.50;79.70;;;;;;4948429;28;20178;-71
2021/01/28 12:59:11;;;;;;;3.87;3.03;;;1.50;80.00;;;;;;4964901;28;20189;-71
2021/01/28 13:01:37;;;;;;;5.93;3.27;;;1.50;80.40;;;;;;4954293;28;20190;-71
2021/01/28 13:04:02;;;;;;;3.50;3.20;;;1.50;80.60;;;;;;4964472;28;20210;-72
2021/01/28 13:06:29;;;;;;;3.23;2.63;;;1.50;80.50;;;;;;4966146;28;20190;-71
2021/01/28 13:08:55;;;;;;;2.37;2.17;;;1.50;79.80;;;;;;4967745;28;20191;-71
2021/01/28 13:11:21;;;;;;;1.20;1.20;;;1.70;79.10;;;;;;4967406;28;20177;-71
2021/01/28 13:13:47;;;;;;;1.80;1.70;;;1.70;76.80;;;;;;4965892;28;20194;-71